Time;durP1;ratioP1;P1;durP2;ratioP2;P2;SDS_P1;SDS_P2;PMS_P1;PMS_P2;Temp;Humidity;BMP_temperature;BMP_pressure;BME280_temperature;BME280_humidity;BME280_pressure;Samples;Min_cycle;Max_cycle;Signal;HPM_P1;HPM_P2
2022/07/03 09:28:52;;;;;;;6.45;4.85;;;;;;;;;;6207257;23;20078;-78
2022/07/03 09:31:24;;;;;;;7.47;4.85;;;;;;;;;;6215120;23;20035;-77
2022/07/03 09:34:07;;;;;;;6.07;4.72;;;;;;;;;;6216308;23;20024;-78
2022/07/03 09:36:47;;;;;;;4.40;3.97;;;;;;;;;;6216173;23;20032;-77
2022/07/03 09:39:16;;;;;;;7.13;4.32;;;;;;;;;;6216153;23;20072;-78
2022/07/03 09:42:00;;;;;;;6.50;4.43;;;;;;;;;;6215929;23;20481;-78
2022/07/03 09:44:35;;;;;;;7.18;4.40;;;;;;;;;;6216064;23;20012;-78
2022/07/03 09:47:17;;;;;;;6.10;5.00;;;;;;;;;;6216183;23;20015;-78
2022/07/03 09:49:52;;;;;;;5.95;4.20;;;;;;;;;;6216253;23;20007;-77
2022/07/03 09:52:38;;;;;;;7.50;4.43;;;;;;;;;;6189180;23;20431;-78
2022/07/03 09:55:09;;;;;;;5.32;3.80;;;;;;;;;;6215855;23;20083;-78
2022/07/03 09:57:40;;;;;;;7.93;4.97;;;;;;;;;;6215923;23;20000;-78
2022/07/03 10:00:14;;;;;;;9.57;4.53;;;;;;;;;;6215972;23;20361;-77
2022/07/03 10:03:03;;;;;;;6.07;5.15;;;;;;;;;;6215725;23;20004;-78
2022/07/03 10:05:28;;;;;;;;;;;;;;;;;;6216326;23;20028;-77
2022/07/03 10:08:18;;;;;;;7.47;5.57;;;;;;;;;;6215698;23;19908;-79
2022/07/03 10:10:48;;;;;;;7.22;6.50;;;;;;;;;;6216211;23;19996;-78
2022/07/03 10:13:15;;;;;;;7.93;6.70;;;;;;;;;;6215739;23;20009;-77
2022/07/03 10:15:42;;;;;;;6.85;6.10;;;;;;;;;;6215622;23;20001;-78
2022/07/03 10:18:12;;;;;;;6.68;5.40;;;;;;;;;;6216200;23;20005;-77
2022/07/03 10:20:46;;;;;;;8.30;6.00;;;;;;;;;;6215917;23;20080;-77
2022/07/03 10:23:12;;;;;;;10.50;5.80;;;;;;;;;;6216153;23;20040;-77
2022/07/03 10:25:41;;;;;;;9.82;5.10;;;;;;;;;;6216191;23;20313;-78
2022/07/03 10:28:07;;;;;;;9.73;5.20;;;;;;;;;;6215937;23;20012;-78
2022/07/03 10:30:32;;;;;;;5.80;5.18;;;;;;;;;;6189309;23;20088;-77
2022/07/03 10:32:58;;;;;;;7.13;4.85;;;;;;;;;;6215939;23;20004;-78
2022/07/03 10:35:36;;;;;;;10.00;5.47;;;;;;;;;;6216175;23;19997;-78
2022/07/03 10:38:01;;;;;;;11.05;6.32;;;;;;;;;;6216127;23;20011;-78
2022/07/03 10:46:31;;;;;;;7.45;6.15;;;;;;;;;;6216141;23;20015;-78
2022/07/03 10:49:07;;;;;;;7.88;5.70;;;;;;;;;;6215921;23;20000;-77
2022/07/03 10:51:41;;;;;;;14.05;6.80;;;;;;;;;;6216073;23;20013;-77
2022/07/03 10:54:14;;;;;;;7.57;5.75;;;;;;;;;;6216043;23;20301;-77
2022/07/03 10:56:58;;;;;;;7.85;5.30;;;;;;;;;;6216179;23;20008;-78
2022/07/03 10:59:36;;;;;;;7.22;6.03;;;;;;;;;;6215932;23;20008;-80
2022/07/03 11:02:43;;;;;;;5.70;5.00;;;;;;;;;;6215915;23;20008;-77
2022/07/03 11:05:25;;;;;;;12.93;6.07;;;;;;;;;;6189737;23;20043;-77
2022/07/03 11:07:50;;;;;;;6.32;5.00;;;;;;;;;;6215883;23;20477;-77
2022/07/03 11:10:19;;;;;;;6.15;5.03;;;;;;;;;;6215839;23;20004;-77
2022/07/03 11:12:56;;;;;;;5.70;4.55;;;;;;;;;;6215941;23;20103;-77
2022/07/03 11:15:37;;;;;;;9.93;4.23;;;;;;;;;;6215746;23;20004;-77
2022/07/03 11:18:08;;;;;;;5.53;4.30;;;;;;;;;;6215913;23;20050;-77
2022/07/03 11:20:43;;;;;;;6.25;3.83;;;;;;;;;;6215943;23;20063;-77
2022/07/03 11:23:26;;;;;;;7.93;4.63;;;;;;;;;;6215916;23;20001;-77
2022/07/03 11:26:07;;;;;;;6.32;4.40;;;;;;;;;;6215874;23;20001;-77
2022/07/03 11:28:32;;;;;;;7.95;5.00;;;;;;;;;;6216443;23;20096;-77
2022/07/03 11:31:11;;;;;;;6.22;4.82;;;;;;;;;;6215988;23;20051;-77
2022/07/03 11:33:51;;;;;;;7.40;4.82;;;;;;;;;;6215724;23;20004;-77
2022/07/03 11:36:16;;;;;;;7.18;4.60;;;;;;;;;;6216654;23;20005;-77
2022/07/03 11:39:07;;;;;;;9.00;5.40;;;;;;;;;;6217582;23;20000;-76
2022/07/03 11:41:36;;;;;;;7.72;4.97;;;;;;;;;;6217681;23;20008;-76
2022/07/03 11:44:03;;;;;;;6.05;4.75;;;;;;;;;;6217673;23;20071;-77
2022/07/03 11:46:31;;;;;;;9.55;5.00;;;;;;;;;;6217692;23;20459;-77
2022/07/03 11:49:13;;;;;;;8.27;5.00;;;;;;;;;;6217842;23;20004;-77
2022/07/03 11:51:53;;;;;;;9.00;4.70;;;;;;;;;;6217162;23;20009;-77
2022/07/03 11:54:19;;;;;;;7.63;4.65;;;;;;;;;;6217522;23;20005;-77
2022/07/03 11:56:44;;;;;;;10.27;4.65;;;;;;;;;;6217119;23;20047;-78
2022/07/03 11:59:09;;;;;;;4.70;4.20;;;;;;;;;;6217400;23;20016;-77
2022/07/03 12:01:37;;;;;;;7.47;5.35;;;;;;;;;;6217183;23;20004;-77
2022/07/03 12:04:22;;;;;;;6.65;4.60;;;;;;;;;;6217558;23;20367;-77
2022/07/03 12:06:53;;;;;;;7.07;4.63;;;;;;;;;;6217613;23;20008;-77
2022/07/03 12:09:20;;;;;;;7.25;4.53;;;;;;;;;;6217245;23;20088;-77
2022/07/03 12:11:58;;;;;;;6.40;4.18;;;;;;;;;;6217040;23;20008;-76
2022/07/03 12:14:43;;;;;;;10.35;5.10;;;;;;;;;;6217151;23;20005;-81
2022/07/03 12:17:11;;;;;;;12.80;4.90;;;;;;;;;;6217623;23;20000;-77
2022/07/03 12:19:38;;;;;;;6.50;4.57;;;;;;;;;;6217108;23;20007;-77
2022/07/03 12:22:05;;;;;;;8.48;4.38;;;;;;;;;;6216852;23;20050;-79
2022/07/03 12:24:30;;;;;;;6.50;3.90;;;;;;;;;;6217126;23;20000;-78
2022/07/03 12:26:55;;;;;;;7.03;3.95;;;;;;;;;;6216692;23;20012;-78
2022/07/03 12:29:21;;;;;;;4.72;3.88;;;;;;;;;;6216911;23;20412;-78
2022/07/03 12:31:48;;;;;;;7.35;4.65;;;;;;;;;;6216542;23;20001;-78
2022/07/03 12:34:15;;;;;;;7.47;4.78;;;;;;;;;;6216418;23;20008;-78
2022/07/03 12:36:54;;;;;;;6.68;5.10;;;;;;;;;;6190185;23;20332;-78
2022/07/03 12:39:19;;;;;;;6.00;4.20;;;;;;;;;;6216875;23;20471;-78
2022/07/03 12:41:45;;;;;;;8.93;5.55;;;;;;;;;;6216818;23;20051;-79
2022/07/03 12:44:10;;;;;;;6.10;4.63;;;;;;;;;;6216642;23;20424;-78
2022/07/03 12:46:36;;;;;;;6.30;4.57;;;;;;;;;;6216725;23;20001;-78
2022/07/03 12:49:11;;;;;;;6.65;4.35;;;;;;;;;;6217111;23;20060;-78
2022/07/03 12:51:53;;;;;;;7.65;4.45;;;;;;;;;;6216751;23;20004;-78
2022/07/03 12:54:21;;;;;;;6.65;4.60;;;;;;;;;;6216553;23;20004;-78
2022/07/03 13:00:03;;;;;;;5.90;4.75;;;;;;;;;;6216892;23;20063;-78
2022/07/03 13:02:28;;;;;;;9.68;5.30;;;;;;;;;;6216139;23;20428;-78
2022/07/03 13:04:54;;;;;;;7.53;5.50;;;;;;;;;;6216737;23;20008;-80
2022/07/03 13:07:20;;;;;;;8.65;5.68;;;;;;;;;;6217111;23;20004;-78
2022/07/03 13:09:52;;;;;;;6.90;5.50;;;;;;;;;;6216879;23;20005;-78
2022/07/03 13:12:24;;;;;;;7.15;5.38;;;;;;;;;;6216616;23;20419;-80
2022/07/03 13:15:00;;;;;;;6.65;5.18;;;;;;;;;;6188711;23;20335;-79
2022/07/03 13:17:53;;;;;;;9.00;5.55;;;;;;;;;;6215938;23;20012;-80
2022/07/03 13:20:24;;;;;;;7.78;5.85;;;;;;;;;;6216054;23;20442;-80
2022/07/03 13:22:55;;;;;;;7.50;5.40;;;;;;;;;;6216247;23;20000;-80
2022/07/03 13:25:21;;;;;;;8.13;5.57;;;;;;;;;;6216756;23;20032;-80
2022/07/03 13:27:47;;;;;;;8.75;5.70;;;;;;;;;;6216603;23;20016;-81
2022/07/03 13:30:16;;;;;;;7.93;5.57;;;;;;;;;;6216553;23;20123;-79
2022/07/03 13:32:42;;;;;;;5.43;4.63;;;;;;;;;;6216525;23;20428;-80
2022/07/03 13:35:08;;;;;;;9.90;5.82;;;;;;;;;;6216645;23;19996;-79
2022/07/03 13:37:34;;;;;;;10.35;5.80;;;;;;;;;;6216458;23;20000;-80
2022/07/03 13:40:01;;;;;;;5.35;4.85;;;;;;;;;;6216436;23;20001;-79
2022/07/03 13:42:26;;;;;;;5.60;4.93;;;;;;;;;;6216380;23;20005;-79
2022/07/03 13:44:52;;;;;;;6.32;4.93;;;;;;;;;;6216711;23;20007;-79
2022/07/03 13:47:17;;;;;;;6.85;5.45;;;;;;;;;;6217026;23;20008;-79
2022/07/03 13:49:43;;;;;;;5.18;4.68;;;;;;;;;;6216540;23;20004;-80
2022/07/03 13:52:09;;;;;;;5.57;5.07;;;;;;;;;;6216335;23;20046;-80
2022/07/03 13:54:34;;;;;;;7.82;4.90;;;;;;;;;;6216503;23;20412;-80
2022/07/03 13:57:01;;;;;;;5.70;4.80;;;;;;;;;;6216614;23;20419;-80
2022/07/03 13:59:26;;;;;;;6.90;5.15;;;;;;;;;;6216988;23;20009;-81
2022/07/03 14:01:52;;;;;;;5.78;4.50;;;;;;;;;;6226614;23;20064;-81
2022/07/03 14:04:17;;;;;;;10.88;6.00;;;;;;;;;;6229858;23;20000;-81
2022/07/03 14:06:43;;;;;;;8.70;6.03;;;;;;;;;;6229384;23;20000;-80
2022/07/03 14:09:08;;;;;;;6.45;5.85;;;;;;;;;;6230066;23;20015;-80
2022/07/03 14:11:33;;;;;;;6.78;5.70;;;;;;;;;;6229723;23;20011;-80
2022/07/03 14:13:59;;;;;;;5.55;5.05;;;;;;;;;;6230094;23;20092;-80
2022/07/03 14:16:24;;;;;;;6.03;5.32;;;;;;;;;;6230307;23;20012;-80
2022/07/03 14:18:50;;;;;;;10.90;6.82;;;;;;;;;;6204986;23;20004;-80
2022/07/03 14:21:15;;;;;;;6.35;5.75;;;;;;;;;;6230881;23;20012;-80
2022/07/03 14:23:40;;;;;;;10.02;6.88;;;;;;;;;;6231086;23;20005;-80
2022/07/03 14:26:06;;;;;;;9.98;6.88;;;;;;;;;;6203989;23;20015;-79
2022/07/03 14:34:02;;;;;;;9.05;6.00;;;;;;;;;;6169686;23;20011;-83
2022/07/03 14:36:27;;;;;;;7.60;5.63;;;;;;;;;;6231233;23;20005;-83
2022/07/03 14:38:53;;;;;;;5.88;5.10;;;;;;;;;;6231118;23;20004;-83
2022/07/03 14:41:18;;;;;;;7.13;5.45;;;;;;;;;;6230233;23;20047;-82
2022/07/03 14:43:44;;;;;;;7.82;5.30;;;;;;;;;;6230734;23;20005;-82
2022/07/03 14:46:09;;;;;;;7.90;5.88;;;;;;;;;;6230196;23;20020;-83
2022/07/03 14:48:35;;;;;;;6.28;5.63;;;;;;;;;;6229064;23;20416;-83
2022/07/03 14:51:00;;;;;;;10.85;6.20;;;;;;;;;;6228729;23;20483;-83
2022/07/03 14:53:25;;;;;;;5.72;5.22;;;;;;;;;;6218570;23;20379;-83
2022/07/03 14:55:52;;;;;;;7.10;5.78;;;;;;;;;;6217005;23;20067;-82
2022/07/03 14:58:21;;;;;;;6.50;5.35;;;;;;;;;;6216722;23;20099;-83
2022/07/03 15:00:54;;;;;;;7.40;5.40;;;;;;;;;;6216507;23;20420;-83
2022/07/03 15:03:33;;;;;;;6.20;5.13;;;;;;;;;;6216873;23;20023;-83
2022/07/03 15:06:07;;;;;;;10.55;5.93;;;;;;;;;;6217418;23;20072;-82
2022/07/03 15:08:33;;;;;;;6.90;6.03;;;;;;;;;;6216864;23;20000;-83
2022/07/03 15:11:06;;;;;;;6.78;6.18;;;;;;;;;;6218194;23;20004;-82
2022/07/03 15:13:34;;;;;;;9.65;6.20;;;;;;;;;;6218727;23;20008;-82
2022/07/03 15:16:00;;;;;;;8.48;6.30;;;;;;;;;;6218788;23;20001;-82
2022/07/03 15:18:28;;;;;;;7.10;5.22;;;;;;;;;;6218938;23;20020;-81
2022/07/03 15:20:54;;;;;;;5.65;5.15;;;;;;;;;;6218992;23;20112;-81
2022/07/03 15:23:20;;;;;;;6.90;5.80;;;;;;;;;;6219127;23;20005;-82
2022/07/03 15:25:47;;;;;;;5.90;5.35;;;;;;;;;;6218872;23;20005;-82
2022/07/03 15:28:15;;;;;;;6.55;5.68;;;;;;;;;;6218369;23;20431;-82
2022/07/03 15:30:47;;;;;;;7.40;5.73;;;;;;;;;;6218815;23;20081;-82
2022/07/03 15:33:13;;;;;;;6.28;5.53;;;;;;;;;;6218962;23;20246;-83
2022/07/03 15:35:48;;;;;;;7.88;5.95;;;;;;;;;;6218830;23;20072;-82
2022/07/03 15:38:17;;;;;;;7.30;6.07;;;;;;;;;;6218708;23;20331;-83
2022/07/03 15:40:56;;;;;;;9.25;5.90;;;;;;;;;;6218219;23;20004;-83
2022/07/03 15:43:24;;;;;;;;;;;;;;;;;;6219284;23;20015;-83
2022/07/03 15:46:10;;;;;;;6.90;5.73;;;;;;;;;;6218326;23;20235;-82
2022/07/03 17:17:18;;;;;;;6.20;5.35;;;;;;;;;;6208243;23;20103;-81
2022/07/03 17:19:58;;;;;;;5.78;4.97;;;;;;;;;;6216485;23;20020;-83
2022/07/03 17:22:28;;;;;;;5.20;4.80;;;;;;;;;;6216782;23;20028;-82
2022/07/03 17:24:55;;;;;;;4.93;4.18;;;;;;;;;;6216649;23;20083;-82
2022/07/03 17:27:25;;;;;;;4.57;4.15;;;;;;;;;;6216584;23;20005;-82
2022/07/03 17:30:03;;;;;;;5.75;3.78;;;;;;;;;;6216809;23;20009;-83
2022/07/03 17:32:33;;;;;;;4.80;4.30;;;;;;;;;;6216622;23;20055;-81
2022/07/03 17:35:02;;;;;;;4.93;4.53;;;;;;;;;;6216011;23;20007;-81
2022/07/03 17:37:31;;;;;;;5.05;3.85;;;;;;;;;;6216514;23;20000;-81
2022/07/03 17:39:57;;;;;;;4.07;3.78;;;;;;;;;;6216828;23;20003;-78
2022/07/03 17:42:23;;;;;;;4.10;3.80;;;;;;;;;;6217006;23;20084;-77
2022/07/03 17:44:49;;;;;;;4.05;3.70;;;;;;;;;;6216218;23;20402;-77
2022/07/03 17:47:16;;;;;;;4.50;3.58;;;;;;;;;;6216499;23;20000;-78
2022/07/03 17:49:45;;;;;;;5.38;3.85;;;;;;;;;;6189723;23;20419;-77
2022/07/03 17:52:17;;;;;;;4.88;4.47;;;;;;;;;;6216297;23;20010;-77
2022/07/03 17:54:47;;;;;;;4.15;3.85;;;;;;;;;;6216140;23;20059;-79
2022/07/03 17:59:59;;;;;;;3.67;3.40;;;;;;;;;;6216124;23;20015;-78
2022/07/03 18:02:25;;;;;;;3.63;3.30;;;;;;;;;;6216162;23;20309;-78
2022/07/03 18:04:55;;;;;;;4.55;4.10;;;;;;;;;;6216359;23;20035;-79
2022/07/03 18:07:24;;;;;;;4.13;3.70;;;;;;;;;;6216181;23;20001;-78
2022/07/03 18:09:57;;;;;;;4.15;3.65;;;;;;;;;;6216053;23;20400;-78
2022/07/03 18:12:25;;;;;;;4.00;3.70;;;;;;;;;;6189383;23;20028;-77
2022/07/03 18:15:01;;;;;;;3.92;3.60;;;;;;;;;;6216163;23;20332;-81
2022/07/03 18:17:31;;;;;;;4.05;3.60;;;;;;;;;;6216032;23;20316;-79
2022/07/03 18:20:01;;;;;;;4.35;3.95;;;;;;;;;;6215938;23;20336;-83
2022/07/03 18:22:26;;;;;;;5.28;4.07;;;;;;;;;;6216236;23;20009;-82
2022/07/03 18:24:57;;;;;;;4.00;3.60;;;;;;;;;;6216565;23;20016;-86
2022/07/03 18:27:23;;;;;;;4.63;4.07;;;;;;;;;;6189981;23;20004;-81
2022/07/03 18:29:48;;;;;;;4.65;3.67;;;;;;;;;;6189458;23;20004;-82
2022/07/03 18:32:17;;;;;;;4.40;4.10;;;;;;;;;;6216633;23;20004;-87
2022/07/03 18:34:47;;;;;;;4.20;3.85;;;;;;;;;;6217294;23;20011;-87
2022/07/03 18:37:12;;;;;;;4.15;3.75;;;;;;;;;;6217830;23;20028;-91
2022/07/03 18:39:38;;;;;;;4.47;3.35;;;;;;;;;;6216578;23;20301;-78
2022/07/03 18:42:04;;;;;;;3.95;3.65;;;;;;;;;;6215979;23;20459;-77
2022/07/03 18:44:32;;;;;;;5.13;4.03;;;;;;;;;;6216414;23;20004;-77
2022/07/03 18:46:57;;;;;;;3.88;3.58;;;;;;;;;;6218049;23;20004;-78
2022/07/03 18:49:23;;;;;;;3.97;3.50;;;;;;;;;;6218109;23;20062;-78
2022/07/03 18:51:58;;;;;;;4.45;4.05;;;;;;;;;;6217997;23;20139;-79
2022/07/03 18:54:34;;;;;;;5.82;4.43;;;;;;;;;;6218016;23;20424;-77
2022/07/03 18:57:05;;;;;;;4.13;3.70;;;;;;;;;;6217929;23;20019;-77
2022/07/03 19:00:00;;;;;;;4.20;3.83;;;;;;;;;;6218229;23;19997;-78
2022/07/03 19:02:27;;;;;;;4.10;3.80;;;;;;;;;;6218050;23;20008;-78
2022/07/03 19:04:55;;;;;;;4.75;4.18;;;;;;;;;;6217786;23;20021;-79
2022/07/03 19:07:37;;;;;;;4.47;4.07;;;;;;;;;;6217963;23;20062;-80
2022/07/03 19:10:11;;;;;;;4.90;3.80;;;;;;;;;;6217878;23;20092;-80
2022/07/03 19:12:39;;;;;;;4.00;3.70;;;;;;;;;;6217925;23;20008;-79
2022/07/03 19:15:05;;;;;;;4.45;4.00;;;;;;;;;;6217822;23;20031;-80
2022/07/03 19:17:32;;;;;;;4.40;4.00;;;;;;;;;;6217588;23;20028;-81
2022/07/03 19:19:59;;;;;;;4.82;4.32;;;;;;;;;;6218132;23;20017;-81
2022/07/03 19:22:24;;;;;;;5.47;4.20;;;;;;;;;;6217984;23;20005;-83
2022/07/03 19:24:50;;;;;;;4.22;3.55;;;;;;;;;;6217695;23;20008;-84
2022/07/03 19:27:16;;;;;;;4.47;3.85;;;;;;;;;;6218302;23;20024;-80
2022/07/03 19:29:42;;;;;;;4.72;4.32;;;;;;;;;;6217964;23;20001;-84
2022/07/03 19:32:08;;;;;;;6.97;4.55;;;;;;;;;;6217574;23;19997;-82
2022/07/03 19:34:33;;;;;;;5.20;4.22;;;;;;;;;;6217944;23;20000;-82
2022/07/03 19:37:00;;;;;;;4.40;4.03;;;;;;;;;;6217995;23;20367;-81
2022/07/03 19:39:26;;;;;;;4.95;4.45;;;;;;;;;;6217718;23;20001;-80
2022/07/03 19:41:52;;;;;;;7.15;4.40;;;;;;;;;;6217631;23;20063;-81
2022/07/03 19:44:17;;;;;;;5.65;4.70;;;;;;;;;;6217640;23;20000;-81
2022/07/03 19:46:44;;;;;;;4.35;4.05;;;;;;;;;;6217468;23;20004;-84
2022/07/03 19:49:09;;;;;;;4.70;4.13;;;;;;;;;;6217486;23;20336;-86
2022/07/03 19:51:35;;;;;;;5.63;4.60;;;;;;;;;;6217587;23;20007;-84
2022/07/03 19:54:01;;;;;;;4.80;4.30;;;;;;;;;;6217789;23;20004;-82
2022/07/03 19:56:26;;;;;;;4.95;4.55;;;;;;;;;;6217011;23;20032;-83
2022/07/03 19:58:52;;;;;;;5.85;4.43;;;;;;;;;;6217235;23;20004;-81
2022/07/03 20:01:17;;;;;;;5.22;4.72;;;;;;;;;;6217331;23;20008;-81
2022/07/03 20:03:43;;;;;;;5.05;4.30;;;;;;;;;;6218028;23;20424;-80
2022/07/03 20:06:09;;;;;;;4.55;4.25;;;;;;;;;;6218239;23;20036;-81
2022/07/03 20:08:35;;;;;;;5.22;4.82;;;;;;;;;;6217555;23;20005;-80
2022/07/03 20:11:03;;;;;;;5.45;4.57;;;;;;;;;;6217421;23;20432;-78
2022/07/03 20:13:28;;;;;;;5.07;4.53;;;;;;;;;;6217033;23;20005;-80
2022/07/03 20:15:54;;;;;;;5.35;4.68;;;;;;;;;;6217591;23;20015;-80
2022/07/03 20:18:19;;;;;;;5.10;4.70;;;;;;;;;;6216957;23;20062;-79
2022/07/03 20:20:45;;;;;;;5.13;4.63;;;;;;;;;;6217237;23;20004;-79
2022/07/03 20:23:11;;;;;;;5.22;4.75;;;;;;;;;;6217617;23;20375;-79
2022/07/03 20:25:36;;;;;;;5.75;5.07;;;;;;;;;;6217381;23;20004;-79
2022/07/03 20:28:08;;;;;;;6.78;4.60;;;;;;;;;;6217545;23;20478;-79
2022/07/03 20:30:33;;;;;;;7.13;5.10;;;;;;;;;;6217079;23;20031;-78
2022/07/03 20:33:00;;;;;;;7.20;5.13;;;;;;;;;;6217216;23;20008;-79
2022/07/03 20:35:26;;;;;;;5.00;4.60;;;;;;;;;;6217270;23;20378;-78
2022/07/03 20:37:53;;;;;;;5.20;4.70;;;;;;;;;;6217273;23;20086;-79
2022/07/03 20:40:19;;;;;;;4.75;4.35;;;;;;;;;;6217302;23;20008;-79
2022/07/03 20:42:45;;;;;;;6.43;4.95;;;;;;;;;;6217075;23;20008;-79
2022/07/03 20:45:10;;;;;;;5.00;4.65;;;;;;;;;;6216732;23;20011;-79
2022/07/03 20:47:37;;;;;;;7.88;5.13;;;;;;;;;;6190233;23;20005;-79
2022/07/03 20:50:03;;;;;;;6.63;6.03;;;;;;;;;;6217171;23;20435;-80
2022/07/03 20:52:28;;;;;;;5.18;4.68;;;;;;;;;;6216805;23;20001;-79
2022/07/03 20:54:54;;;;;;;5.32;4.80;;;;;;;;;;6217084;23;20004;-79
2022/07/03 20:57:19;;;;;;;6.80;6.10;;;;;;;;;;6216940;23;20004;-79
2022/07/03 20:59:46;;;;;;;4.78;4.38;;;;;;;;;;6216828;23;20028;-79
2022/07/03 21:02:12;;;;;;;8.23;5.47;;;;;;;;;;6216975;23;20100;-79
2022/07/03 21:04:38;;;;;;;5.53;5.03;;;;;;;;;;6216694;23;20036;-79
2022/07/03 21:07:03;;;;;;;5.43;4.93;;;;;;;;;;6216993;23;20524;-80
2022/07/03 21:09:31;;;;;;;5.57;5.10;;;;;;;;;;6216761;23;19997;-79
2022/07/03 21:11:57;;;;;;;6.60;5.95;;;;;;;;;;6216588;23;20004;-78
2022/07/03 21:14:24;;;;;;;5.75;5.25;;;;;;;;;;6216504;23;20062;-79
2022/07/03 21:16:53;;;;;;;5.57;5.18;;;;;;;;;;6216471;23;20000;-79
2022/07/03 21:19:19;;;;;;;5.10;4.70;;;;;;;;;;6216421;23;20328;-78
2022/07/03 21:21:46;;;;;;;5.70;5.20;;;;;;;;;;6216279;23;20058;-78
